CheckWX is a tool to help pilots better visualize weather data.  It is not intended as a substitute for an official pre-flight weather briefing.

17:53:41 UTC

CYVQ METAR
Norman Wells Airport
Norman Wells, Canada
Current

54 mins ago

CYVQ 211700Z 28013G18KT 30SM FEW006 FEW012 BKN022 OVC100 13/10 A3008 RMK ST1SC2SC3AC3 ST TR SLP190
Observed
Jul-21 @ 17:00 UTC
Wind
  • 280° at 13 KTS
  • Gusting to 18 KTS
Visibility
30 SM
Flight Rules
MVFR
Cloud Levels
  • Few at 600' AGL
  • Few at 1,200' AGL
  • Broken at 2,200' AGL
  • Overcast at 10,000' AGL
Temperature
13°C / 55°F
Dewpoint
10°C / 50°F
Humidity
82%
Altimeter
30.08" Hg
Pressure
1018.62 hPa
Previous

2 hours ago

CYVQ 211600Z 28015G22KT 20SM FEW005 BKN011 BKN023 OVC120 13/11 A3006 RMK ST1SC5SC2AC1 ST TR SLP185
Observed
Jul-21 @ 16:00 UTC
Wind
  • 280° at 15 KTS
  • Gusting to 22 KTS
Visibility
20 SM
Flight Rules
MVFR
Cloud Levels
  • Few at 500' AGL
  • Broken at 1,100' AGL
  • Broken at 2,300' AGL
  • Overcast at 12,000' AGL
Temperature
13°C / 55°F
Dewpoint
11°C / 52°F
Humidity
88%
Altimeter
30.06" Hg
Pressure
1017.92 hPa
Previous

2 hours ago

CYVQ 211533Z 29017G24KT 20SM FEW005 BKN010 BKN025 OVC120 13/11 A3005 RMK ST1SC6SC1AC1 ST TR SLP181
Observed
Jul-21 @ 15:33 UTC
Wind
  • 290° at 17 KTS
  • Gusting to 24 KTS
Visibility
20 SM
Flight Rules
MVFR
Cloud Levels
  • Few at 500' AGL
  • Broken at 1,000' AGL
  • Broken at 2,500' AGL
  • Overcast at 12,000' AGL
Temperature
13°C / 55°F
Dewpoint
11°C / 52°F
Humidity
88%
Altimeter
30.05" Hg
Pressure
1017.62 hPa